createdAt,value
2023-08-21T00:02:29.369Z,52.72
2023-08-21T00:05:15.501Z,55.70
2023-08-21T00:08:01.470Z,49.81
2023-08-21T00:10:47.617Z,48.45
2023-08-21T00:13:33.500Z,48.88
2023-08-21T00:16:19.659Z,48.23
2023-08-21T00:19:05.928Z,47.53
2023-08-21T00:21:51.704Z,50.34
2023-08-21T00:24:37.779Z,50.43
2023-08-21T00:27:23.665Z,57.15
2023-08-21T00:30:10.448Z,52.31
2023-08-21T00:32:56.908Z,53.67
2023-08-21T00:35:43.933Z,50.81
2023-08-21T00:38:30.114Z,50.18
2023-08-21T00:41:16.414Z,50.94
2023-08-21T00:44:02.425Z,49.88
2023-08-21T00:46:48.787Z,49.05
2023-08-21T00:49:35.957Z,48.67
2023-08-21T00:52:22.054Z,48.51
2023-08-21T00:55:09.231Z,48.28
2023-08-21T00:57:56.065Z,52.46
2023-08-21T01:00:43.212Z,50.51
2023-08-21T01:03:29.303Z,49.30
2023-08-21T01:06:15.956Z,48.94
2023-08-21T01:09:09.202Z,49.02
2023-08-21T01:12:17.247Z,48.45
2023-08-21T01:15:11.008Z,48.53
2023-08-21T01:17:57.216Z,48.60
2023-08-21T01:20:43.919Z,48.26
2023-08-21T01:23:39.662Z,48.28
2023-08-21T01:26:25.633Z,50.39
2023-08-21T01:29:12.749Z,48.88
2023-08-21T01:32:15.823Z,49.71
2023-08-21T01:35:02.807Z,48.85
2023-08-21T01:37:49.443Z,48.91
2023-08-21T01:40:35.718Z,48.57
2023-08-21T01:43:21.873Z,48.46
2023-08-21T01:46:08.065Z,48.48
2023-08-21T01:48:54.041Z,48.41
2023-08-21T01:51:40.109Z,48.33
2023-08-21T01:54:26.218Z,48.02
2023-08-21T01:57:12.182Z,48.00
2023-08-21T01:59:58.110Z,48.25
2023-08-21T02:02:44.267Z,49.24
2023-08-21T02:05:30.537Z,50.61
2023-08-21T02:08:16.521Z,50.84
2023-08-21T02:11:02.995Z,53.90
2023-08-21T02:13:49.575Z,53.79
2023-08-21T02:16:35.779Z,52.73
2023-08-21T02:19:21.759Z,57.96
2023-08-21T02:22:07.738Z,60.07
2023-08-21T02:24:53.718Z,53.37
2023-08-21T02:27:39.821Z,53.04
2023-08-21T02:30:28.485Z,52.17
2023-08-21T02:33:14.800Z,53.56
2023-08-21T02:36:00.686Z,53.28
2023-08-21T02:38:51.206Z,51.85
2023-08-21T02:41:37.528Z,52.61
2023-08-21T02:44:23.612Z,51.33
2023-08-21T02:47:09.379Z,51.15
2023-08-21T02:49:56.040Z,56.73
2023-08-21T02:52:42.256Z,52.97
2023-08-21T02:55:28.449Z,54.43
2023-08-21T02:58:14.447Z,52.90
2023-08-21T03:01:00.338Z,55.67
2023-08-21T03:03:46.222Z,54.75
2023-08-21T03:06:32.271Z,55.01
2023-08-21T03:09:18.185Z,55.37
2023-08-21T03:12:04.842Z,54.66
2023-08-21T03:14:51.115Z,57.08
2023-08-21T03:17:37.189Z,53.95
2023-08-21T03:20:23.447Z,58.04
2023-08-21T03:23:09.468Z,54.12
2023-08-21T03:25:55.454Z,55.55
2023-08-21T03:28:41.450Z,60.45
2023-08-21T03:31:27.410Z,58.51
2023-08-21T03:34:14.006Z,58.80
2023-08-21T03:37:00.631Z,57.57
2023-08-21T03:39:49.998Z,58.41
2023-08-21T03:42:36.206Z,55.48
2023-08-21T03:45:22.545Z,58.32
2023-08-21T03:48:08.545Z,58.56
2023-08-21T03:50:54.841Z,60.60
2023-08-21T03:53:40.991Z,57.88
2023-08-21T03:56:26.973Z,59.88
2023-08-21T03:59:13.836Z,59.52
2023-08-21T04:02:00.445Z,57.08
2023-08-21T04:04:46.554Z,58.27
2023-08-21T04:07:32.694Z,56.88
2023-08-21T04:10:18.577Z,58.67
2023-08-21T04:13:04.512Z,58.74
2023-08-21T04:15:51.216Z,61.05
2023-08-21T04:18:42.171Z,59.38
2023-08-21T04:21:28.622Z,59.69
2023-08-21T04:24:14.774Z,59.46
2023-08-21T04:27:00.710Z,60.62
2023-08-21T04:29:46.641Z,58.64
2023-08-21T04:32:32.810Z,60.38
2023-08-21T04:35:18.866Z,56.89
2023-08-21T04:38:04.750Z,57.73
2023-08-21T04:40:50.909Z,58.52
2023-08-21T04:43:36.824Z,63.28
2023-08-21T04:46:24.289Z,62.25
2023-08-21T04:49:10.456Z,57.62
2023-08-21T04:51:56.288Z,60.52
2023-08-21T04:54:43.234Z,58.01
2023-08-21T04:57:30.289Z,58.88
2023-08-21T05:00:18.169Z,56.73
2023-08-21T05:03:05.225Z,56.78
2023-08-21T05:05:55.528Z,57.32
2023-08-21T05:08:42.489Z,58.00
2023-08-21T05:11:30.061Z,58.81
2023-08-21T05:14:17.302Z,56.88
2023-08-21T05:17:03.545Z,56.10
2023-08-21T05:19:49.570Z,55.92
2023-08-21T05:22:37.374Z,55.66
2023-08-21T05:25:23.955Z,55.29
2023-08-21T05:28:10.158Z,55.52
2023-08-21T05:30:56.428Z,55.09
2023-08-21T05:33:42.470Z,54.95
2023-08-21T05:36:28.677Z,55.23
2023-08-21T05:39:15.694Z,54.61
2023-08-21T05:42:01.905Z,54.60
2023-08-21T05:44:48.187Z,54.09
2023-08-21T05:47:34.548Z,54.22
2023-08-21T05:50:20.592Z,54.33
2023-08-21T05:53:07.440Z,54.25
2023-08-21T05:55:55.063Z,54.12
2023-08-21T05:58:41.686Z,53.98
2023-08-21T06:01:27.608Z,53.90
2023-08-21T06:04:14.088Z,53.83
2023-08-21T06:07:03.579Z,53.72
2023-08-21T06:09:49.468Z,53.94
2023-08-21T06:12:35.855Z,53.44
2023-08-21T06:15:22.062Z,53.86
2023-08-21T06:18:08.197Z,54.85
2023-08-21T06:20:56.407Z,54.40
2023-08-21T06:23:42.692Z,55.04
2023-08-21T06:26:28.592Z,57.21
2023-08-21T06:29:14.889Z,54.41
2023-08-21T06:32:00.987Z,54.49
2023-08-21T06:34:46.951Z,54.71
2023-08-21T06:37:33.010Z,54.18
2023-08-21T06:40:19.167Z,53.85
2023-08-21T06:43:07.312Z,54.96
2023-08-21T06:45:54.241Z,54.98
2023-08-21T06:48:44.309Z,54.14
2023-08-21T06:51:30.162Z,53.68
2023-08-21T06:54:16.343Z,53.63
2023-08-21T06:57:02.083Z,54.26
2023-08-21T06:59:47.958Z,53.48
2023-08-21T07:02:34.068Z,54.95
2023-08-21T07:05:20.215Z,53.82
2023-08-21T07:08:06.798Z,53.58
2023-08-21T07:10:53.711Z,53.26
2023-08-21T07:13:40.160Z,53.20
2023-08-21T07:16:27.591Z,53.56
2023-08-21T07:19:13.500Z,53.84
2023-08-21T07:21:59.456Z,53.40
2023-08-21T07:24:45.527Z,53.09
2023-08-21T07:27:32.994Z,53.55
2023-08-21T07:30:19.067Z,53.22
2023-08-21T07:33:06.446Z,53.47
2023-08-21T07:36:06.417Z,53.30
2023-08-21T07:38:52.737Z,53.22
2023-08-21T07:41:38.874Z,52.88
2023-08-21T07:44:25.025Z,53.42
2023-08-21T07:47:11.315Z,53.04
2023-08-21T07:49:58.616Z,53.45
2023-08-21T07:52:44.745Z,53.12
2023-08-21T07:55:30.674Z,52.89
2023-08-21T07:58:16.646Z,52.85
2023-08-21T08:01:02.819Z,52.50
2023-08-21T08:03:50.650Z,52.81
2023-08-21T08:06:37.146Z,52.34
2023-08-21T08:09:23.253Z,52.30
2023-08-21T08:12:10.127Z,52.03
2023-08-21T08:14:56.218Z,51.55
2023-08-21T08:17:42.255Z,51.62
2023-08-21T08:20:28.173Z,51.31
2023-08-21T08:23:14.276Z,51.31
2023-08-21T08:26:00.436Z,51.19
2023-08-21T08:28:47.960Z,51.26
2023-08-21T08:31:34.101Z,51.00
2023-08-21T08:34:21.666Z,51.18
2023-08-21T08:37:07.575Z,51.06
2023-08-21T08:39:53.707Z,50.85
2023-08-21T08:42:40.426Z,50.76
2023-08-21T08:45:33.669Z,50.46
2023-08-21T08:48:21.928Z,50.34
2023-08-21T08:51:08.240Z,50.48
2023-08-21T08:53:54.307Z,50.11
2023-08-21T08:56:40.400Z,49.92
2023-08-21T08:59:26.865Z,50.14
2023-08-21T09:02:13.123Z,50.00
2023-08-21T09:04:59.786Z,49.94
2023-08-21T09:07:45.959Z,49.69
2023-08-21T09:10:32.310Z,49.63
2023-08-21T09:13:20.006Z,49.16
2023-08-21T09:16:06.553Z,49.34
2023-08-21T09:18:55.193Z,49.24
2023-08-21T09:21:41.644Z,48.11
2023-08-21T09:24:27.724Z,49.24
2023-08-21T09:27:18.485Z,48.88
2023-08-21T09:30:10.590Z,48.26
2023-08-21T09:32:59.081Z,48.29
2023-08-21T09:35:45.019Z,48.48
2023-08-21T09:38:31.545Z,48.31
2023-08-21T09:41:20.783Z,47.96
2023-08-21T09:44:07.034Z,47.99
2023-08-21T09:46:53.336Z,47.80
2023-08-21T09:49:40.588Z,47.50
2023-08-21T09:52:27.478Z,47.36
2023-08-21T09:55:14.975Z,47.47
2023-08-21T09:58:02.057Z,47.09
2023-08-21T10:00:50.572Z,47.05
2023-08-21T10:03:37.363Z,47.08
2023-08-21T10:06:25.073Z,46.90
2023-08-21T10:09:11.258Z,46.59
2023-08-21T10:11:57.714Z,46.66
2023-08-21T10:14:43.882Z,46.13
2023-08-21T10:17:29.950Z,45.93
2023-08-21T10:20:23.600Z,45.90
2023-08-21T10:23:09.434Z,45.89
2023-08-21T10:26:00.549Z,45.94
2023-08-21T10:28:51.949Z,46.64
2023-08-21T10:31:44.425Z,45.57
2023-08-21T10:34:35.958Z,45.37
2023-08-21T10:37:23.254Z,45.68
2023-08-21T10:40:13.591Z,44.96
2023-08-21T10:43:00.507Z,45.06
2023-08-21T10:45:58.575Z,40.64
2023-08-21T10:48:45.104Z,44.64
2023-08-21T10:51:31.415Z,44.42
2023-08-21T10:54:17.555Z,43.37
2023-08-21T10:57:04.133Z,43.82
2023-08-21T10:59:55.772Z,43.47
2023-08-21T11:02:47.292Z,39.87
2023-08-21T11:05:33.337Z,43.42
2023-08-21T11:08:20.064Z,43.24
2023-08-21T11:11:07.791Z,42.49
2023-08-21T11:13:55.784Z,42.10
2023-08-21T11:16:42.970Z,42.01
2023-08-21T11:19:31.998Z,41.78
2023-08-21T11:22:18.062Z,41.38
2023-08-21T11:25:05.109Z,41.28
2023-08-21T11:27:51.127Z,41.65
2023-08-21T11:30:37.135Z,41.55
2023-08-21T11:33:23.693Z,41.59
2023-08-21T11:36:10.054Z,41.43
2023-08-21T11:39:01.213Z,41.18
2023-08-21T11:42:00.108Z,41.03
2023-08-21T11:44:50.970Z,40.26
2023-08-21T11:47:37.625Z,40.89
2023-08-21T11:50:24.173Z,40.17
2023-08-21T11:53:12.007Z,40.19
2023-08-21T11:55:58.334Z,40.31
2023-08-21T11:58:50.351Z,40.02
2023-08-21T12:01:36.474Z,39.91
2023-08-21T12:04:22.865Z,39.37
2023-08-21T12:07:08.984Z,39.70
2023-08-21T12:09:54.983Z,38.66
2023-08-21T12:12:41.044Z,38.54
2023-08-21T12:15:26.966Z,38.51
2023-08-21T12:18:13.497Z,38.37
2023-08-21T12:21:00.011Z,38.18
2023-08-21T12:23:46.397Z,37.81
2023-08-21T12:26:44.692Z,37.49
2023-08-21T12:29:35.861Z,37.78
2023-08-21T12:32:25.231Z,37.90
2023-08-21T12:35:13.346Z,37.64
2023-08-21T12:38:00.050Z,37.90
2023-08-21T12:40:46.254Z,37.84
2023-08-21T12:43:32.682Z,37.42
2023-08-21T12:46:18.823Z,37.59
2023-08-21T12:49:05.509Z,37.50
2023-08-21T12:51:51.653Z,37.65
2023-08-21T12:54:37.746Z,37.22
2023-08-21T12:57:24.019Z,37.02
2023-08-21T13:00:12.899Z,36.99
2023-08-21T13:02:59.550Z,37.15
2023-08-21T13:05:45.760Z,37.01
2023-08-21T13:08:32.379Z,36.90
2023-08-21T13:11:18.625Z,37.07
2023-08-21T13:14:04.833Z,36.71
2023-08-21T13:16:51.092Z,36.57
2023-08-21T13:19:37.154Z,36.71
2023-08-21T13:22:23.312Z,36.50
2023-08-21T13:25:09.721Z,36.31
2023-08-21T13:27:56.339Z,36.34
2023-08-21T13:30:54.085Z,36.06
2023-08-21T13:33:51.899Z,35.55
2023-08-21T13:36:39.363Z,35.85
2023-08-21T13:39:27.476Z,35.94
2023-08-21T13:42:13.598Z,35.60
2023-08-21T13:44:59.577Z,35.82
2023-08-21T13:47:48.514Z,35.37
2023-08-21T13:50:34.873Z,35.77
2023-08-21T13:53:22.127Z,35.25
2023-08-21T13:56:08.079Z,35.09
2023-08-21T13:58:54.395Z,35.15
2023-08-21T14:01:40.482Z,35.41
2023-08-21T14:04:27.377Z,34.98
2023-08-21T14:07:14.057Z,34.91
2023-08-21T14:10:00.401Z,35.14
2023-08-21T14:12:46.628Z,34.58
2023-08-21T14:15:32.858Z,34.29
2023-08-21T14:18:18.980Z,33.98
2023-08-21T14:21:05.134Z,33.87
2023-08-21T14:23:51.287Z,33.25
2023-08-21T14:26:37.277Z,33.76
2023-08-21T14:29:23.480Z,33.60
2023-08-21T14:32:10.921Z,33.76
2023-08-21T14:34:57.077Z,33.82
2023-08-21T14:37:43.592Z,33.73
2023-08-21T14:40:29.778Z,33.77
2023-08-21T14:43:16.113Z,33.28
2023-08-21T14:46:02.224Z,33.05
2023-08-21T14:48:48.650Z,33.24
2023-08-21T14:51:34.900Z,33.22
2023-08-21T14:54:21.550Z,33.10
2023-08-21T14:57:07.681Z,33.21
2023-08-21T14:59:53.582Z,32.88
2023-08-21T15:02:39.753Z,32.82
2023-08-21T15:05:26.046Z,33.02
2023-08-21T15:08:12.337Z,33.10
2023-08-21T15:10:58.567Z,32.79
2023-08-21T15:13:44.836Z,33.24
2023-08-21T15:16:31.513Z,33.13
2023-08-21T15:19:17.693Z,32.79
2023-08-21T15:22:03.887Z,32.65
2023-08-21T15:24:50.069Z,32.76
2023-08-21T15:27:36.912Z,32.68
2023-08-21T15:30:23.528Z,32.59
2023-08-21T15:33:09.659Z,32.71
2023-08-21T15:35:55.568Z,32.18
2023-08-21T15:38:41.674Z,32.07
2023-08-21T15:41:27.671Z,32.40
2023-08-21T15:44:13.520Z,32.14
2023-08-21T15:47:24.177Z,32.17
2023-08-21T15:50:06.483Z,31.64
2023-08-21T15:52:52.681Z,31.67
2023-08-21T15:55:38.690Z,31.78
2023-08-21T15:58:24.847Z,31.70
2023-08-21T16:01:11.045Z,31.54
2023-08-21T16:03:57.005Z,31.73
2023-08-21T16:06:42.970Z,31.61
2023-08-21T16:09:29.038Z,31.70
2023-08-21T16:12:14.996Z,31.32
2023-08-21T16:15:01.445Z,31.45
2023-08-21T16:17:48.290Z,31.69
2023-08-21T16:20:34.784Z,31.80
2023-08-21T16:23:20.936Z,31.81
2023-08-21T16:26:06.967Z,31.79
2023-08-21T16:28:53.126Z,31.80
2023-08-21T16:31:39.135Z,31.48
2023-08-21T16:34:25.345Z,31.67
2023-08-21T16:37:11.244Z,31.55
2023-08-21T16:39:57.065Z,31.68
2023-08-21T16:42:43.332Z,31.60
2023-08-21T16:45:29.508Z,31.99
2023-08-21T16:48:15.407Z,31.99
2023-08-21T16:51:01.384Z,32.13
2023-08-21T16:53:47.304Z,31.77
2023-08-21T16:56:33.423Z,31.93
2023-08-21T16:59:19.847Z,31.84
2023-08-21T17:02:05.939Z,31.78
2023-08-21T17:04:52.747Z,31.95
2023-08-21T17:07:39.389Z,31.53
2023-08-21T17:10:25.744Z,31.86
2023-08-21T17:13:12.179Z,31.69
2023-08-21T17:16:00.292Z,31.92
2023-08-21T17:18:46.676Z,32.37
2023-08-21T17:21:32.993Z,32.10
2023-08-21T17:24:20.423Z,32.06
2023-08-21T17:27:06.332Z,32.10
2023-08-21T17:29:53.147Z,32.47
2023-08-21T17:32:39.527Z,32.14
2023-08-21T17:35:26.270Z,32.08
2023-08-21T17:38:12.159Z,32.57
2023-08-21T17:40:57.978Z,32.26
2023-08-21T17:43:44.650Z,32.77
2023-08-21T17:46:30.881Z,32.49
2023-08-21T17:49:17.065Z,32.54
2023-08-21T17:52:03.647Z,32.78
2023-08-21T17:54:49.897Z,32.59
2023-08-21T17:57:37.878Z,32.65
2023-08-21T18:00:24.655Z,32.54
2023-08-21T18:03:10.800Z,32.63
2023-08-21T18:05:56.732Z,32.88
2023-08-21T18:08:43.313Z,33.26
2023-08-21T18:11:29.319Z,33.34
2023-08-21T18:14:15.396Z,33.24
2023-08-21T18:17:04.618Z,33.04
2023-08-21T18:19:51.613Z,33.47
2023-08-21T18:22:37.738Z,33.18
2023-08-21T18:25:23.950Z,33.38
2023-08-21T18:28:10.541Z,33.52
2023-08-21T18:30:58.092Z,33.77
2023-08-21T18:33:44.395Z,33.73
2023-08-21T18:36:34.642Z,34.02
2023-08-21T18:39:20.777Z,33.98
2023-08-21T18:42:06.781Z,34.22
2023-08-21T18:44:53.279Z,34.13
2023-08-21T18:47:40.190Z,33.86
2023-08-21T18:50:43.362Z,34.27
2023-08-21T18:53:31.981Z,33.98
2023-08-21T18:56:18.187Z,34.13
2023-08-21T18:59:04.162Z,34.19
2023-08-21T19:01:50.281Z,34.63
2023-08-21T19:04:36.262Z,34.68
2023-08-21T19:07:22.577Z,34.65
2023-08-21T19:10:10.727Z,34.74
2023-08-21T19:12:57.309Z,34.58
2023-08-21T19:15:43.275Z,34.81
2023-08-21T19:18:29.526Z,34.62
2023-08-21T19:21:15.765Z,35.13
2023-08-21T19:24:01.892Z,35.15
2023-08-21T19:26:47.922Z,35.43
2023-08-21T19:29:34.042Z,35.32
2023-08-21T19:32:20.174Z,35.50
2023-08-21T19:35:06.674Z,35.60
2023-08-21T19:37:53.569Z,35.80
2023-08-21T19:40:40.042Z,35.67
2023-08-21T19:43:26.429Z,35.60
2023-08-21T19:46:13.244Z,35.89
2023-08-21T19:48:59.516Z,35.87
2023-08-21T19:51:46.059Z,35.94
2023-08-21T19:54:32.570Z,36.46
2023-08-21T19:57:18.868Z,36.08
2023-08-21T20:00:06.552Z,36.05
2023-08-21T20:02:52.783Z,36.26
2023-08-21T20:05:39.636Z,36.38
2023-08-21T20:08:25.622Z,36.57
2023-08-21T20:11:11.822Z,36.62
2023-08-21T20:13:57.921Z,36.66
2023-08-21T20:16:43.998Z,36.96
2023-08-21T20:19:30.212Z,36.85
2023-08-21T20:22:16.388Z,37.04
2023-08-21T20:25:03.763Z,36.83
2023-08-21T20:27:50.293Z,37.25
2023-08-21T20:30:36.559Z,37.08
2023-08-21T20:33:22.657Z,37.17
2023-08-21T20:36:08.418Z,37.11
2023-08-21T20:38:54.625Z,37.37
2023-08-21T20:41:40.590Z,37.87
2023-08-21T20:44:26.437Z,37.78
2023-08-21T20:47:13.062Z,37.93
2023-08-21T20:50:00.455Z,37.65
2023-08-21T20:52:48.460Z,37.78
2023-08-21T20:55:34.790Z,37.98
2023-08-21T20:58:21.614Z,38.17
2023-08-21T21:01:08.033Z,38.11
2023-08-21T21:03:54.132Z,38.07
2023-08-21T21:06:40.356Z,38.57
2023-08-21T21:09:26.610Z,38.63
2023-08-21T21:12:12.952Z,38.80
2023-08-21T21:14:59.362Z,38.59
2023-08-21T21:17:46.581Z,38.92
2023-08-21T21:20:32.558Z,38.75
2023-08-21T21:23:18.525Z,39.00
2023-08-21T21:26:04.759Z,39.23
2023-08-21T21:28:50.786Z,38.91
2023-08-21T21:31:37.208Z,39.22
2023-08-21T21:34:23.404Z,39.46
2023-08-21T21:37:10.079Z,39.47
2023-08-21T21:39:56.518Z,39.25
2023-08-21T21:42:42.769Z,39.33
2023-08-21T21:45:28.908Z,39.70
2023-08-21T21:48:15.205Z,39.58
2023-08-21T21:51:01.415Z,39.95
2023-08-21T21:53:47.631Z,39.80
2023-08-21T21:56:33.476Z,39.65
2023-08-21T21:59:19.592Z,40.14
2023-08-21T22:02:05.677Z,40.20
2023-08-21T22:04:51.665Z,40.03
2023-08-21T22:07:37.938Z,40.25
2023-08-21T22:10:24.128Z,40.44
2023-08-21T22:13:10.268Z,40.56
2023-08-21T22:15:56.585Z,40.55
2023-08-21T22:18:42.360Z,40.46
2023-08-21T22:21:28.436Z,40.73
2023-08-21T22:24:14.591Z,40.60
2023-08-21T22:27:00.676Z,41.16
2023-08-21T22:29:46.707Z,41.22
2023-08-21T22:32:32.716Z,41.30
2023-08-21T22:35:19.093Z,41.24
2023-08-21T22:38:05.083Z,41.43
2023-08-21T22:40:51.146Z,41.44
2023-08-21T22:43:37.237Z,41.54
2023-08-21T22:46:23.367Z,41.73
2023-08-21T22:49:09.246Z,41.75
2023-08-21T22:51:55.196Z,42.03
2023-08-21T22:54:41.706Z,41.99
2023-08-21T22:57:27.721Z,41.95
2023-08-21T23:00:15.119Z,42.03
2023-08-21T23:03:01.173Z,42.36
2023-08-21T23:05:57.346Z,42.60
2023-08-21T23:08:43.494Z,41.94
2023-08-21T23:11:29.887Z,42.28
2023-08-21T23:14:15.946Z,42.42
2023-08-21T23:17:05.899Z,42.27
2023-08-21T23:19:52.215Z,42.80
2023-08-21T23:22:38.460Z,42.48
2023-08-21T23:25:24.743Z,42.69
2023-08-21T23:28:10.917Z,42.96
2023-08-21T23:30:57.372Z,42.99
2023-08-21T23:33:43.342Z,42.85
2023-08-21T23:36:29.464Z,43.00
2023-08-21T23:39:15.627Z,42.97
2023-08-21T23:42:01.847Z,43.12
2023-08-21T23:44:48.008Z,43.27
2023-08-21T23:47:34.064Z,43.36
2023-08-21T23:50:20.374Z,43.50
2023-08-21T23:53:07.773Z,43.46
2023-08-21T23:55:54.971Z,43.59
2023-08-21T23:58:42.165Z,43.73
